首页
METAR-TAF:

METAR-TAF

机场 :

重庆江北国际机场

重庆, 中华人民共和国

纬度: 29-31N, 经度: 106-29E, 海拔: 351米

当前天气观测

该预报发布于56分钟前的17:00 UTC
风速2节,风向东南
温度 26°C
湿度 89%
气压 1003 hPa
能见度10公里或以上
1500米以下无云,无积雨云

METAR: ZUCK 231700Z 14001MPS CAVOK 26/24 Q1003 NOSIG

时间: 01:56 (17:56 UTC)

预报

该预报发布于2小时和54分钟前的15:02 UTC
预报有效从23日的 18点(UTC)到 24日的 18点(UTC)
风速6节,风向北转东北
能見度: 6000
散云层高于5000英尺

TAF: ZUCK 231502Z 2318/2418 03003MPS 6000 SCT050 TX31/2408Z TN24/2322Z

超过4000个机场的气象观测和天气预报(METAR&TAF报告)。

可查询的气象台以黄色和红色小点在地图上表示。

将鼠标移到小点上方,可查看气象台名称。

然后点击查看天气观测和预报。

如需切换地图:点击带黑十字的绿色按钮放大地图;点击带横线的绿色按钮缩小地图;或者点击绿色箭头查看邻近地区的地图。


METAR-TAF: